Time;durP1;ratioP1;P1;durP2;ratioP2;P2;SDS_P1;SDS_P2;PMS_P1;PMS_P2;Temp;Humidity;BMP_temperature;BMP_pressure;BME280_temperature;BME280_humidity;BME280_pressure;Samples;Min_cycle;Max_cycle;Signal;HPM_P1;HPM_P2
2022/06/02 00:00:59;;;;;;;18.95;7.70;;;;;;;8.19;84.34;101806.53;5071524;28;20034;-81
2022/06/02 00:04:05;;;;;;;20.33;7.75;;;;;;;8.24;83.28;101808.97;5058019;28;20025;-81
2022/06/02 00:06:43;;;;;;;18.70;8.10;;;;;;;8.14;83.85;101802.34;4955212;28;20561;-82
2022/06/02 00:09:23;;;;;;;18.98;7.70;;;;;;;8.15;84.24;101806.75;4954769;28;20031;-82
2022/06/02 00:11:59;;;;;;;18.50;7.70;;;;;;;8.11;84.71;101808.72;4969213;28;20050;-82
2022/06/02 00:14:38;;;;;;;22.00;8.77;;;;;;;8.07;84.77;101807.13;4951252;29;20042;-82
2022/06/02 00:17:23;;;;;;;20.35;8.63;;;;;;;8.07;84.30;101814.28;4967620;28;20145;-81
2022/06/02 00:19:57;;;;;;;19.88;8.30;;;;;;;8.01;84.94;101804.75;4948576;28;20428;-81
2022/06/02 00:22:32;;;;;;;20.15;8.90;;;;;;;8.00;85.30;101811.91;4969802;28;20030;-82
2022/06/02 00:25:18;;;;;;;19.67;8.70;;;;;;;7.96;84.84;101810.28;4970338;28;20464;-82
2022/06/02 00:28:07;;;;;;;19.67;8.32;;;;;;;7.95;84.30;101811.25;4965814;28;20035;-81
2022/06/02 00:30:42;;;;;;;20.33;7.93;;;;;;;7.91;84.84;101814.16;4961073;28;20043;-81
2022/06/02 00:33:28;;;;;;;21.20;8.27;;;;;;;7.90;84.55;101812.41;4951645;28;20045;-81
2022/06/02 00:35:58;;;;;;;19.88;8.55;;;;;;;7.81;85.01;101816.38;4959052;28;20074;-81
2022/06/02 00:38:27;;;;;;;19.00;8.40;;;;;;;7.78;84.84;101819.19;5054717;28;20072;-82
2022/06/02 00:40:54;;;;;;;19.92;9.07;;;;;;;7.75;84.56;101816.66;5051199;28;20083;-82
2022/06/02 00:43:28;;;;;;;22.40;8.32;;;;;;;7.75;85.24;101817.53;5081907;28;20127;-82
2022/06/02 00:46:29;;;;;;;19.92;8.60;;;;;;;7.75;84.74;101822.88;5082325;28;20028;-81
2022/06/02 00:49:20;;;;;;;19.38;7.75;;;;;;;7.69;84.21;101818.66;5059722;28;20039;-81
2022/06/02 00:52:02;;;;;;;19.52;8.23;;;;;;;7.63;84.40;101820.78;5056043;28;20021;-81
2022/06/02 00:58:09;;;;;;;21.25;9.02;;;;;;;7.57;84.30;101824.59;5051676;28;20080;-82
2022/06/02 01:00:55;;;;;;;20.23;9.02;;;;;;;7.55;83.83;101831.81;5049030;28;20358;-81
2022/06/02 01:03:23;;;;;;;20.20;8.27;;;;;;;7.48;84.21;101830.34;5067587;28;20464;-81
2022/06/02 01:06:04;;;;;;;17.88;8.15;;;;;;;7.51;83.93;101830.19;5070894;28;20078;-81
2022/06/02 01:08:48;;;;;;;19.90;8.07;;;;;;;7.45;84.57;101822.44;5067091;28;20040;-81
2022/06/02 01:11:44;;;;;;;21.90;8.65;;;;;;;7.44;84.25;101821.59;5032037;28;1071533;-81
2022/06/02 01:14:18;;;;;;;20.70;8.27;;;;;;;7.44;84.63;101823.41;4989480;28;20049;-81
2022/06/02 01:16:58;;;;;;;21.05;9.52;;;;;;;7.40;84.40;101822.66;4973097;28;20525;-81
2022/06/02 01:19:54;;;;;;;20.33;7.70;;;;;;;7.39;84.27;101820.06;4984131;28;20042;-81
2022/06/02 01:22:46;;;;;;;19.52;8.35;;;;;;;7.32;84.21;101819.44;4983937;28;20041;-81
2022/06/02 01:25:46;;;;;;;19.60;8.07;;;;;;;7.29;84.14;101820.47;4973296;28;20054;-81
2022/06/02 01:28:32;;;;;;;19.55;7.82;;;;;;;7.28;84.30;101823.22;4969762;28;20046;-82
2022/06/02 01:31:18;;;;;;;19.42;8.07;;;;;;;7.25;84.56;101826.88;4967320;28;20031;-81
2022/06/02 01:34:01;;;;;;;20.55;8.43;;;;;;;7.26;84.50;101820.63;4982189;28;20109;-81
2022/06/02 01:36:54;;;;;;;19.85;7.88;;;;;;;7.22;84.08;101827.03;4989626;28;20026;-82
2022/06/02 01:39:38;;;;;;;18.58;7.57;;;;;;;7.19;84.51;101829.84;4973865;28;20358;-81
2022/06/02 01:42:12;;;;;;;21.63;8.05;;;;;;;7.16;84.30;101825.47;4989615;28;20034;-81
2022/06/02 01:44:43;;;;;;;16.67;6.80;;;;;;;7.13;84.43;101830.97;4990789;28;20038;-81
2022/06/02 01:47:12;;;;;;;17.90;7.75;;;;;;;7.08;84.42;101832.94;5002525;28;20092;-81
2022/06/02 01:49:52;;;;;;;18.48;7.45;;;;;;;7.09;84.56;101833.84;5006732;28;20120;-81
2022/06/02 01:52:46;;;;;;;19.67;8.32;;;;;;;7.06;84.46;101823.25;5051156;28;20411;-81
2022/06/02 01:55:34;;;;;;;20.65;7.88;;;;;;;6.99;84.52;101828.88;5041269;28;20119;-81
2022/06/02 01:58:17;;;;;;;20.30;8.85;;;;;;;6.95;84.82;101826.41;5058202;28;20028;-81
2022/06/02 02:00:44;;;;;;;20.05;7.75;;;;;;;6.92;84.62;101827.38;5049642;28;20087;-82
2022/06/02 02:03:38;;;;;;;18.35;8.27;;;;;;;6.94;84.65;101822.84;5060953;28;20107;-81
2022/06/02 02:06:25;;;;;;;19.50;8.73;;;;;;;6.96;85.31;101833.47;5082257;28;20072;-81
2022/06/02 02:09:18;;;;;;;22.88;8.38;;;;;;;7.03;84.77;101828.72;5057508;28;20071;-81
2022/06/02 02:11:50;;;;;;;20.85;9.52;;;;;;;7.06;85.37;101834.84;5073780;28;20056;-82
2022/06/02 02:15:00;;;;;;;22.48;10.57;;;;;;;7.08;84.69;101834.75;5064249;28;20035;-81
2022/06/02 02:17:31;;;;;;;22.17;10.40;;;;;;;7.03;84.66;101836.75;5069526;28;20531;-81
2022/06/02 02:20:27;;;;;;;26.15;12.50;;;;;;;6.99;84.70;101833.34;5067709;28;20160;-81
2022/06/02 02:23:07;;;;;;;21.48;10.23;;;;;;;6.94;84.77;101838.00;5070714;28;20100;-82
2022/06/02 02:25:42;;;;;;;23.08;9.85;;;;;;;6.85;84.48;101841.94;5069501;28;20048;-82
2022/06/02 02:28:17;;;;;;;22.23;10.75;;;;;;;6.78;84.80;101849.34;5059927;28;20465;-82
2022/06/02 02:30:45;;;;;;;21.52;10.32;;;;;;;6.72;84.48;101852.28;5069375;28;20033;-82
2022/06/02 02:33:48;;;;;;;24.08;10.40;;;;;;;6.72;84.01;101841.59;5068905;28;20125;-82
2022/06/02 02:36:54;;;;;;;21.70;9.70;;;;;;;6.65;84.02;101846.31;5049210;28;20187;-81
2022/06/02 02:39:43;;;;;;;21.05;9.95;;;;;;;6.62;84.11;101845.56;5051677;28;20494;-82
2022/06/02 02:42:22;;;;;;;22.13;10.70;;;;;;;6.58;83.77;101850.16;5048167;28;20461;-81
2022/06/02 02:45:01;;;;;;;22.23;10.73;;;;;;;6.56;84.64;101846.69;5069482;28;20067;-81
2022/06/02 02:47:37;;;;;;;23.58;11.25;;;;;;;6.58;84.40;101849.31;5067405;28;20035;-81
2022/06/02 02:50:18;;;;;;;22.17;10.93;;;;;;;6.56;84.19;101841.34;5085125;28;20016;-81
2022/06/02 02:53:06;;;;;;;20.20;9.45;;;;;;;6.50;84.06;101841.59;5090729;28;20031;-81
2022/06/02 02:55:36;;;;;;;20.90;10.02;;;;;;;6.46;84.40;101840.84;5090564;28;20031;-81
2022/06/02 02:58:16;;;;;;;23.15;11.60;;;;;;;6.47;84.47;101844.38;5064427;28;20170;-81
2022/06/02 03:01:06;;;;;;;23.55;11.57;;;;;;;6.48;84.32;101848.78;5050337;28;20028;-82
2022/06/02 03:04:07;;;;;;;21.58;10.82;;;;;;;6.48;84.26;101856.81;5049042;28;20094;-82
2022/06/02 03:06:36;;;;;;;22.38;10.73;;;;;;;6.41;84.10;101857.97;5050143;28;20032;-81
2022/06/02 03:09:10;;;;;;;23.17;11.50;;;;;;;6.41;84.39;101860.66;5049335;28;20538;-81
2022/06/02 03:11:54;;;;;;;22.50;11.57;;;;;;;6.43;84.57;101857.00;5067331;28;20519;-81
2022/06/02 03:15:04;;;;;;;22.85;11.25;;;;;;;6.46;84.20;101866.69;5053510;28;20033;-81
2022/06/02 03:17:38;;;;;;;24.45;12.20;;;;;;;6.37;84.40;101867.91;4979148;28;20026;-82
2022/06/02 03:20:32;;;;;;;23.02;10.98;;;;;;;6.35;84.02;101864.41;4975645;28;20036;-83
2022/06/02 03:22:57;;;;;;;25.92;12.30;;;;;;;6.27;84.38;101866.53;4991937;28;20092;-82
2022/06/02 03:25:45;;;;;;;23.33;11.07;;;;;;;6.27;84.29;101867.41;4991899;28;20338;-82
2022/06/02 03:28:36;;;;;;;22.13;10.00;;;;;;;6.24;84.25;101880.88;4972575;28;20126;-81
2022/06/02 03:31:08;;;;;;;23.80;10.95;;;;;;;6.17;84.60;101874.03;4981872;28;20442;-81
2022/06/02 03:33:56;;;;;;;24.27;11.85;;;;;;;6.16;84.56;101877.63;4990589;28;20109;-81
2022/06/02 03:36:50;;;;;;;22.75;11.20;;;;;;;6.18;84.35;101883.78;4991179;28;20026;-81
2022/06/02 03:39:33;;;;;;;23.65;11.27;;;;;;;6.19;85.11;101885.50;4972582;28;20058;-81
2022/06/02 03:42:10;;;;;;;23.73;12.93;;;;;;;6.21;85.30;101883.66;4984796;28;20482;-81
2022/06/02 03:44:58;;;;;;;24.48;12.35;;;;;;;6.23;85.00;101895.13;4990371;28;20035;-81
2022/06/02 03:47:45;;;;;;;23.70;12.57;;;;;;;6.19;84.63;101895.31;4972829;28;20042;-81
2022/06/02 03:50:14;;;;;;;27.10;12.75;;;;;;;6.15;85.00;101889.25;4975901;28;20042;-82
2022/06/02 03:52:45;;;;;;;24.48;13.07;;;;;;;6.11;85.21;101899.16;5054981;28;20033;-82
2022/06/02 03:55:16;;;;;;;26.92;14.07;;;;;;;6.10;85.20;101892.06;5051264;28;20144;-81
2022/06/02 03:57:56;;;;;;;24.20;14.27;;;;;;;6.12;85.75;101897.38;5063083;28;20500;-81
2022/06/02 04:00:26;;;;;;;;;;;;;;;6.27;84.11;101909.25;5053431;28;20029;-81
2022/06/02 04:02:55;;;;;;;25.50;13.88;;;;;;;6.14;85.36;101894.63;5053780;28;19912;-81
2022/06/02 04:05:53;;;;;;;26.88;13.77;;;;;;;6.18;85.47;101904.25;5051209;28;20502;-81
2022/06/02 04:08:45;;;;;;;25.77;13.18;;;;;;;6.16;85.96;101904.31;5049855;28;20036;-81
2022/06/02 04:14:36;;;;;;;;;;;;;;;6.30;84.33;101904.66;5052565;28;20043;-81
2022/06/02 04:17:44;;;;;;;24.80;12.38;;;;;;;6.28;85.58;101906.53;5050626;28;19913;-81
2022/06/02 04:20:37;;;;;;;24.63;13.25;;;;;;;6.26;85.79;101913.72;5059737;28;20357;-82
2022/06/02 04:23:14;;;;;;;24.35;14.48;;;;;;;6.29;86.15;101918.91;5066383;28;20032;-81
2022/06/02 04:25:52;;;;;;;27.83;14.20;;;;;;;6.30;86.25;101922.50;5069810;28;20127;-81
2022/06/02 04:28:48;;;;;;;25.90;14.60;;;;;;;6.34;87.01;101916.09;5065374;28;20036;-82
2022/06/02 04:31:43;;;;;;;27.23;16.02;;;;;;;6.39;87.30;101919.44;5071115;28;20111;-81
2022/06/02 04:34:15;;;;;;;26.55;15.60;;;;;;;6.43;88.04;101929.09;5061079;28;20029;-81
2022/06/02 04:36:55;;;;;;;30.27;17.88;;;;;;;6.51;88.30;101920.78;5050681;28;20119;-81
2022/06/02 04:39:43;;;;;;;27.70;16.17;;;;;;;6.62;88.02;101928.38;5057502;28;20483;-81
2022/06/02 04:42:33;;;;;;;29.27;17.70;;;;;;;6.66;88.29;101927.31;5052216;28;20020;-81
2022/06/02 04:45:13;;;;;;;27.80;17.83;;;;;;;6.75;88.54;101931.41;5072339;28;20029;-81
2022/06/02 04:48:07;;;;;;;27.25;17.20;;;;;;;6.80;88.49;101929.44;5049450;28;20033;-81
2022/06/02 04:50:41;;;;;;;31.90;17.90;;;;;;;6.89;88.49;101929.06;5050546;28;20059;-81
2022/06/02 04:53:14;;;;;;;33.03;20.27;;;;;;;6.96;88.99;101927.03;5051825;28;20564;-82
2022/06/02 04:55:49;;;;;;;28.83;18.80;;;;;;;7.03;89.30;101924.94;5049960;28;20115;-81
2022/06/02 04:58:27;;;;;;;32.80;20.45;;;;;;;7.10;89.32;101926.44;5050168;28;20072;-81
2022/06/02 05:01:06;;;;;;;33.03;21.23;;;;;;;7.17;89.62;101919.91;5054093;28;20041;-81
2022/06/02 05:03:53;;;;;;;29.75;20.02;;;;;;;7.28;90.21;101928.34;5062198;28;20124;-81
2022/06/02 05:06:29;;;;;;;32.00;20.98;;;;;;;7.37;90.29;101929.78;5082396;28;20032;-81
2022/06/02 05:09:42;;;;;;;32.05;20.38;;;;;;;7.47;90.30;101940.97;5068727;28;20093;-81
2022/06/02 05:12:19;;;;;;;31.95;20.88;;;;;;;7.53;90.35;101938.00;5035819;28;20072;-80
2022/06/02 05:14:54;;;;;;;35.95;25.20;;;;;;;7.66;91.19;101938.38;5053588;28;20123;-80
2022/06/02 05:17:22;;;;;;;39.28;25.08;;;;;;;7.78;91.53;101943.16;5055719;28;20428;-80
2022/06/02 05:20:06;;;;;;;35.08;23.23;;;;;;;7.91;91.15;101934.59;5054218;28;20135;-80
2022/06/02 05:22:51;;;;;;;34.70;23.88;;;;;;;8.02;90.98;101943.00;5052914;28;20024;-81
2022/06/02 05:25:39;;;;;;;34.42;22.70;;;;;;;8.12;90.20;101938.09;5069551;28;20024;-81
2022/06/02 05:28:31;;;;;;;34.65;23.30;;;;;;;8.21;90.08;101940.34;5055620;28;20039;-81
2022/06/02 05:31:21;;;;;;;35.90;23.42;;;;;;;8.28;90.13;101939.13;5049576;28;20035;-80
2022/06/02 05:34:04;;;;;;;39.42;26.17;;;;;;;8.35;89.83;101945.94;5051442;28;20040;-80
2022/06/02 05:36:59;;;;;;;35.88;24.27;;;;;;;8.43;89.93;101934.88;5059747;28;20031;-80
2022/06/02 05:39:34;;;;;;;36.53;25.60;;;;;;;8.52;90.62;101931.81;5058366;28;20455;-81
2022/06/02 05:42:09;;;;;;;35.00;24.85;;;;;;;8.62;90.45;101934.91;5056691;28;20040;-81
2022/06/02 05:45:12;;;;;;;40.55;25.77;;;;;;;8.72;90.77;101936.19;5059030;28;20025;-81
2022/06/02 05:48:06;;;;;;;39.05;26.25;;;;;;;8.84;91.90;101942.78;5050016;28;20041;-81
2022/06/02 05:51:13;;;;;;;39.10;26.88;;;;;;;8.95;91.08;101936.91;5085879;28;20044;-81
2022/06/02 05:53:55;;;;;;;35.30;25.67;;;;;;;9.05;91.40;101938.19;5029165;28;20148;-81
2022/06/02 05:56:33;;;;;;;37.38;25.08;;;;;;;9.15;91.88;101943.97;5010603;28;20045;-81
2022/06/02 05:59:09;;;;;;;41.45;26.63;;;;;;;9.25;92.33;101949.72;4994222;28;20044;-81
2022/06/02 06:02:17;;;;;;;41.70;26.67;;;;;;;9.38;92.65;101955.34;5010406;28;20638;-81
2022/06/02 06:05:03;;;;;;;35.80;26.15;;;;;;;9.47;93.18;101960.25;4979833;28;20034;-82
2022/06/02 06:07:48;;;;;;;35.72;25.05;;;;;;;9.59;92.35;101961.44;4992073;28;20505;-81
2022/06/02 06:10:16;;;;;;;40.15;25.15;;;;;;;9.68;91.72;101963.66;5015124;28;20029;-81
2022/06/02 06:13:04;;;;;;;34.42;24.13;;;;;;;9.76;92.03;101968.63;5027477;28;20064;-81
2022/06/02 06:15:52;;;;;;;34.55;24.02;;;;;;;9.86;91.45;101974.41;5009503;28;20034;-81
2022/06/02 06:18:23;;;;;;;32.80;21.27;;;;;;;9.93;92.20;101979.34;5006070;28;20500;-83
2022/06/02 06:21:15;;;;;;;33.65;22.27;;;;;;;10.01;92.43;101978.09;5028215;28;20132;-81
2022/06/02 06:23:50;;;;;;;34.03;22.95;;;;;;;10.09;90.78;101979.41;5037360;28;20041;-82
2022/06/02 06:26:33;;;;;;;38.22;23.05;;;;;;;10.19;91.21;101992.34;5035849;28;20032;-83
2022/06/02 06:29:32;;;;;;;31.35;22.45;;;;;;;10.27;90.65;101988.31;5029132;28;20029;-81
2022/06/02 06:32:09;;;;;;;32.28;22.02;;;;;;;10.36;89.58;101986.97;5068817;28;20158;-81
2022/06/02 06:34:44;;;;;;;31.38;20.52;;;;;;;10.43;87.91;101985.69;5063883;28;20029;-81
2022/06/02 06:37:50;;;;;;;36.85;20.75;;;;;;;10.53;88.85;101988.75;5065402;28;20043;-81
2022/06/02 06:40:21;;;;;;;32.90;21.60;;;;;;;10.63;90.28;101991.78;5071389;28;20020;-81
2022/06/02 06:42:55;;;;;;;30.95;21.02;;;;;;;10.69;88.19;101988.78;5074314;28;20062;-81
2022/06/02 06:45:31;;;;;;;30.15;18.92;;;;;;;10.78;88.22;101996.31;5069782;28;20392;-81
2022/06/02 06:48:03;;;;;;;29.88;20.90;;;;;;;10.86;89.00;101993.19;5085592;28;20028;-81
2022/06/02 06:50:52;;;;;;;31.20;20.95;;;;;;;10.98;89.75;102005.06;5074769;28;20377;-82
2022/06/02 06:53:17;;;;;;;30.52;18.00;;;;;;;11.02;87.34;102003.94;5081420;28;20028;-81
2022/06/02 06:56:13;;;;;;;30.48;19.50;;;;;;;11.08;86.05;102000.91;5074468;28;20073;-81
2022/06/02 06:59:03;;;;;;;27.23;16.45;;;;;;;11.16;86.35;102006.72;5066757;28;20405;-81
2022/06/02 07:02:01;;;;;;;30.52;17.70;;;;;;;11.22;85.26;102015.41;5076631;28;20131;-81
2022/06/02 07:04:38;;;;;;;28.73;17.27;;;;;;;11.29;84.91;102014.09;5079645;28;20024;-81
2022/06/02 07:07:22;;;;;;;27.33;15.38;;;;;;;11.35;84.67;102011.91;5067945;28;20077;-80
2022/06/02 07:09:56;;;;;;;28.80;16.75;;;;;;;11.44;85.15;102006.97;5060331;28;20476;-81
2022/06/02 07:15:15;;;;;;;24.30;12.95;;;;;;;11.65;83.92;102021.84;5064478;28;20589;-81
2022/06/02 07:18:10;;;;;;;22.95;11.80;;;;;;;11.71;82.67;102015.22;5080879;28;20059;-80
2022/06/02 07:21:01;;;;;;;21.10;10.55;;;;;;;11.82;81.23;102023.53;5074599;28;20154;-81
2022/06/02 07:23:51;;;;;;;21.92;11.00;;;;;;;11.87;80.12;102029.53;5070718;28;20031;-81
2022/06/02 07:26:31;;;;;;;20.58;9.60;;;;;;;11.89;79.81;102033.00;5069252;28;20035;-81
2022/06/02 07:29:20;;;;;;;23.90;9.88;;;;;;;11.89;78.78;102027.59;5070883;28;20109;-81
2022/06/02 07:32:04;;;;;;;22.08;11.43;;;;;;;11.99;78.91;102037.84;5064778;28;20059;-81
2022/06/02 07:34:52;;;;;;;20.38;10.73;;;;;;;12.13;79.23;102043.28;5067096;28;20036;-81
2022/06/02 07:37:37;;;;;;;22.92;10.63;;;;;;;12.25;77.01;102041.66;5067630;28;20474;-81
2022/06/02 07:40:27;;;;;;;23.60;12.13;;;;;;;12.40;77.22;102042.53;5080240;28;20051;-82
2022/06/02 07:43:14;;;;;;;23.23;11.65;;;;;;;12.48;76.30;102042.94;5064299;28;20068;-81
2022/06/02 07:45:53;;;;;;;26.80;14.07;;;;;;;12.58;77.38;102052.19;5077975;28;20051;-81
2022/06/02 07:48:31;;;;;;;23.15;11.98;;;;;;;12.64;75.54;102036.59;5076174;28;20471;-81
2022/06/02 07:51:09;;;;;;;21.45;11.93;;;;;;;12.71;76.11;102040.63;5066386;28;20086;-81
2022/06/02 07:53:48;;;;;;;23.73;12.10;;;;;;;12.79;76.59;102032.91;5077512;28;20028;-81
2022/06/02 07:56:34;;;;;;;25.77;12.27;;;;;;;12.89;76.05;102041.28;5083741;28;20036;-81
2022/06/02 07:59:05;;;;;;;21.30;10.32;;;;;;;12.98;73.15;102029.88;5063569;28;20035;-81
2022/06/02 08:02:07;;;;;;;21.48;10.88;;;;;;;13.11;75.78;102027.25;5074431;28;20047;-81
2022/06/02 08:05:10;;;;;;;21.35;9.95;;;;;;;13.16;75.14;102025.13;5086375;28;20112;-81
2022/06/02 08:07:49;;;;;;;19.65;8.90;;;;;;;13.23;72.09;102029.16;5079739;28;20024;-81
2022/06/02 08:10:29;;;;;;;20.43;9.43;;;;;;;13.31;72.85;102027.78;5069906;28;20347;-81
2022/06/02 08:13:01;;;;;;;20.13;8.48;;;;;;;13.37;71.74;102033.69;5074655;28;20514;-82
2022/06/02 08:15:32;;;;;;;20.27;8.35;;;;;;;13.44;71.40;102029.63;5081171;28;20036;-81
2022/06/02 08:18:03;;;;;;;19.80;8.52;;;;;;;13.50;68.94;102025.63;5074756;28;20193;-81
2022/06/02 08:20:52;;;;;;;19.80;7.47;;;;;;;13.57;68.52;102024.25;5090997;28;20110;-82
2022/06/02 08:23:24;;;;;;;;;;;;;;;13.62;71.57;102022.09;5077386;28;20021;-82
2022/06/02 08:26:11;;;;;;;19.90;8.82;;;;;;;13.64;68.66;102024.69;5079116;28;19932;-82
2022/06/02 08:29:02;;;;;;;21.88;7.53;;;;;;;13.75;70.62;102024.84;5083280;28;20032;-82
2022/06/02 08:31:38;;;;;;;24.65;8.30;;;;;;;13.83;68.32;102031.56;5082662;28;20137;-82
2022/06/02 08:34:25;;;;;;;18.63;8.40;;;;;;;13.85;68.29;102033.19;5067121;28;20037;-82
2022/06/02 08:37:03;;;;;;;20.65;8.60;;;;;;;13.92;67.59;102036.31;5078636;28;20102;-82
2022/06/02 08:40:17;;;;;;;21.17;9.48;;;;;;;13.95;70.02;102039.69;5070893;28;20035;-82
2022/06/02 08:43:21;;;;;;;20.80;10.15;;;;;;;13.94;69.09;102037.97;5042792;28;20097;-81
2022/06/02 08:45:58;;;;;;;20.55;9.60;;;;;;;14.02;68.49;102041.97;5068552;28;20033;-82
2022/06/02 08:48:38;;;;;;;19.83;9.35;;;;;;;14.05;67.04;102049.88;5088413;28;20065;-82
2022/06/02 08:51:18;;;;;;;21.17;9.98;;;;;;;14.06;66.97;102049.75;5072867;28;20036;-83
2022/06/02 08:53:44;;;;;;;21.08;9.20;;;;;;;14.11;66.29;102044.03;5068668;28;20063;-87
2022/06/02 08:56:37;;;;;;;23.90;10.50;;;;;;;14.15;69.00;102048.25;5078999;28;20032;-79
2022/06/02 08:59:31;;;;;;;19.80;8.60;;;;;;;14.20;69.20;102048.78;5069412;28;20052;-79
2022/06/02 09:02:11;;;;;;;20.30;8.85;;;;;;;14.20;65.05;102040.69;5064494;28;20024;-79
2022/06/02 09:05:04;;;;;;;23.02;9.88;;;;;;;14.24;67.78;102044.91;5065226;28;20479;-79
2022/06/02 09:07:32;;;;;;;19.58;8.48;;;;;;;14.25;66.65;102041.25;5057836;28;20119;-79
2022/06/02 09:10:08;;;;;;;21.42;10.05;;;;;;;14.16;65.13;102034.63;5050166;28;20033;-79
2022/06/02 09:13:18;;;;;;;24.15;9.07;;;;;;;14.21;67.45;102037.00;5051159;28;20060;-79
2022/06/02 09:15:50;;;;;;;20.60;8.50;;;;;;;14.27;67.39;102044.69;5050167;28;20090;-79
2022/06/02 09:18:33;;;;;;;18.83;7.97;;;;;;;14.29;65.50;102037.34;5051716;28;20051;-79
2022/06/02 09:21:18;;;;;;;18.98;7.78;;;;;;;14.34;65.26;102043.28;5051603;28;20025;-79
2022/06/02 09:24:05;;;;;;;21.23;8.18;;;;;;;14.43;67.84;102041.78;5059328;28;20031;-79
2022/06/02 09:27:08;;;;;;;19.05;8.38;;;;;;;14.52;67.07;102034.84;5049753;28;20040;-79
2022/06/02 09:29:57;;;;;;;21.27;9.20;;;;;;;14.60;65.44;102037.03;5067872;28;20225;-78
2022/06/02 09:32:41;;;;;;;19.33;7.57;;;;;;;14.66;66.83;102032.06;5075999;28;20016;-78
2022/06/02 09:35:18;;;;;;;21.60;9.13;;;;;;;14.68;64.93;102040.94;5070693;28;20037;-78
2022/06/02 09:38:26;;;;;;;21.73;8.50;;;;;;;14.75;66.33;102035.09;5067134;28;20029;-78
2022/06/02 09:41:23;;;;;;;21.63;9.00;;;;;;;14.73;65.45;102037.91;5064827;28;20119;-79
2022/06/02 09:44:04;;;;;;;20.58;8.65;;;;;;;14.73;65.11;102034.31;5068878;28;20025;-79
2022/06/02 09:47:18;;;;;;;19.08;8.80;;;;;;;14.72;65.86;102041.56;5064299;28;20021;-78
2022/06/02 09:50:05;;;;;;;19.42;8.63;;;;;;;14.63;64.76;102032.28;5077826;28;20032;-78
2022/06/02 09:53:11;;;;;;;18.92;8.18;;;;;;;14.71;66.04;102030.88;5078356;28;20031;-78
2022/06/02 09:55:52;;;;;;;20.42;9.98;;;;;;;14.72;61.82;102038.88;5067504;28;20036;-78
2022/06/02 09:58:55;;;;;;;18.70;8.32;;;;;;;14.83;65.87;102041.69;5063244;28;20048;-78
2022/06/02 10:01:44;;;;;;;20.58;7.95;;;;;;;14.93;64.61;102036.44;5067449;28;20115;-78
2022/06/02 10:04:09;;;;;;;19.90;9.30;;;;;;;15.03;62.98;102036.63;5060740;28;20311;-78
2022/06/02 10:06:58;;;;;;;20.13;9.65;;;;;;;15.02;62.07;102038.50;5062923;28;20369;-79
2022/06/02 10:09:49;;;;;;;19.73;9.85;;;;;;;15.01;62.54;102036.75;5062446;28;20028;-78
2022/06/02 10:15:20;;;;;;;21.05;7.90;;;;;;;15.20;64.73;102021.88;5065604;28;20480;-78
2022/06/02 10:18:16;;;;;;;19.58;8.35;;;;;;;15.21;64.26;102023.56;5068798;28;20028;-78
2022/06/02 10:21:04;;;;;;;20.17;8.90;;;;;;;15.31;62.65;102021.06;5073735;28;20430;-78
2022/06/02 10:23:55;;;;;;;18.15;7.88;;;;;;;15.46;65.21;102021.75;5067325;28;20085;-78
2022/06/02 10:26:41;;;;;;;19.40;7.63;;;;;;;15.53;63.81;102029.31;5069496;28;20058;-78
2022/06/02 10:29:43;;;;;;;18.58;7.30;;;;;;;15.60;62.29;102029.69;5072417;28;20032;-79
2022/06/02 10:32:26;;;;;;;20.23;7.97;;;;;;;15.62;59.62;102022.31;5079080;28;20023;-79
2022/06/02 10:35:09;;;;;;;21.48;8.25;;;;;;;15.61;58.39;102012.47;5088039;28;20024;-78
2022/06/02 10:37:49;;;;;;;16.67;7.20;;;;;;;15.73;62.59;102022.34;5069161;28;20575;-78
2022/06/02 10:40:26;;;;;;;16.33;7.50;;;;;;;15.76;62.55;102017.69;5068737;28;20077;-78
2022/06/02 10:43:15;;;;;;;18.45;8.05;;;;;;;15.78;63.13;102008.47;5071725;28;20051;-78
2022/06/02 10:45:58;;;;;;;19.33;7.82;;;;;;;15.88;61.98;102016.78;5070269;28;20392;-78
2022/06/02 10:48:58;;;;;;;20.23;7.38;;;;;;;15.95;61.50;102014.47;5070528;28;20044;-78
2022/06/02 10:51:58;;;;;;;17.80;6.70;;;;;;;16.02;60.40;102013.84;5069004;28;20024;-78
2022/06/02 10:54:40;;;;;;;17.15;7.35;;;;;;;16.07;59.58;102016.22;5012396;28;20041;-78
2022/06/02 10:57:36;;;;;;;19.70;7.90;;;;;;;16.07;58.13;102011.63;5026415;28;20144;-79
2022/06/02 11:00:30;;;;;;;18.80;8.18;;;;;;;16.04;57.87;102011.03;5008938;28;20076;-79
2022/06/02 11:03:34;;;;;;;18.45;7.50;;;;;;;16.05;59.95;102012.75;5010870;28;20033;-79
2022/06/02 11:06:25;;;;;;;18.88;7.47;;;;;;;16.17;61.66;102006.38;5011083;28;20045;-79
2022/06/02 11:09:38;;;;;;;18.98;7.97;;;;;;;16.27;59.44;102009.22;5009995;28;20052;-79
2022/06/02 11:12:29;;;;;;;17.35;6.72;;;;;;;16.35;56.15;102003.19;5025700;28;20163;-79
2022/06/02 11:15:23;;;;;;;19.67;8.40;;;;;;;16.39;58.04;102008.22;5029222;28;20037;-78
2022/06/02 11:18:19;;;;;;;18.63;7.82;;;;;;;16.34;59.28;102002.31;5029585;28;20092;-78
2022/06/02 11:20:57;;;;;;;18.42;8.27;;;;;;;16.33;58.33;102002.44;5026614;28;20021;-79
2022/06/02 11:23:35;;;;;;;20.35;8.80;;;;;;;16.35;60.05;102011.31;5012133;28;20449;-79
2022/06/02 11:26:03;;;;;;;17.92;7.95;;;;;;;16.34;56.74;102006.88;5029385;28;20038;-79
2022/06/02 11:29:08;;;;;;;19.75;8.35;;;;;;;16.28;57.68;101996.50;5010945;28;20116;-79
2022/06/02 11:31:58;;;;;;;19.67;7.97;;;;;;;16.25;57.56;101993.06;5042581;28;20633;-78
2022/06/02 11:34:52;;;;;;;21.52;8.20;;;;;;;16.35;59.42;101993.19;5067851;28;20044;-78
2022/06/02 11:37:20;;;;;;;17.95;7.03;;;;;;;16.45;58.42;101987.03;5064721;28;20450;-78
2022/06/02 11:40:23;;;;;;;17.17;7.20;;;;;;;16.48;60.80;101984.06;5069608;28;20044;-78
2022/06/02 11:43:24;;;;;;;18.27;7.45;;;;;;;16.40;57.32;101988.25;5070160;28;20024;-79
2022/06/02 11:46:07;;;;;;;17.98;7.63;;;;;;;16.51;61.02;101986.53;5066019;28;20107;-79
2022/06/02 11:49:10;;;;;;;18.45;7.20;;;;;;;16.61;60.15;101984.81;5071810;28;20128;-79
2022/06/02 11:52:19;;;;;;;18.80;7.50;;;;;;;16.65;58.46;101978.16;5089406;28;20020;-79
2022/06/02 11:54:47;;;;;;;;;;;;;;;16.70;59.24;101965.03;5065009;28;20096;-78
2022/06/02 11:57:45;;;;;;;19.27;7.95;;;;;;;16.85;60.10;101970.22;5085655;28;19912;-79
2022/06/02 12:00:14;;;;;;;17.65;7.25;;;;;;;16.92;53.56;101969.59;5070466;28;20383;-79
2022/06/02 12:02:54;;;;;;;19.37;7.37;;;;;;;17.03;56.86;101960.59;5068594;28;20406;-79
2022/06/02 12:05:32;;;;;;;20.80;7.50;;;;;;;17.07;58.22;101953.03;5070502;28;20471;-79
2022/06/02 12:08:31;;;;;;;18.52;6.75;;;;;;;17.19;59.14;101951.13;5069345;28;20551;-78
2022/06/02 12:11:15;;;;;;;18.25;6.90;;;;;;;17.21;56.66;101962.75;5046909;28;20052;-79
2022/06/02 12:14:21;;;;;;;16.33;7.00;;;;;;;17.22;55.85;101948.16;5065779;28;20461;-79
2022/06/02 12:17:27;;;;;;;22.05;8.50;;;;;;;17.23;56.46;101942.63;5062828;28;20044;-78
2022/06/02 12:20:18;;;;;;;17.17;6.57;;;;;;;17.24;52.90;101940.75;5065546;28;20052;-78
2022/06/02 12:23:02;;;;;;;16.08;6.43;;;;;;;17.28;54.79;101936.81;5069060;28;20199;-79
2022/06/02 12:25:37;;;;;;;19.98;7.47;;;;;;;17.31;53.86;101925.66;5064135;28;20040;-79
2022/06/02 12:28:35;;;;;;;17.13;6.47;;;;;;;17.27;54.89;101926.91;5065298;28;20043;-79
2022/06/02 12:31:12;;;;;;;18.67;6.80;;;;;;;17.24;54.26;101930.75;5065749;28;20044;-79
2022/06/02 12:34:15;;;;;;;16.27;6.15;;;;;;;17.16;57.15;101933.28;5068754;28;20056;-79
2022/06/02 12:37:03;;;;;;;18.00;6.10;;;;;;;17.17;53.83;101934.13;5067748;28;20040;-79
2022/06/02 12:39:54;;;;;;;17.08;6.75;;;;;;;17.15;54.23;101920.66;5084461;28;20035;-78
2022/06/02 12:42:45;;;;;;;16.35;5.72;;;;;;;17.21;54.94;101922.84;5082829;28;20468;-78
2022/06/02 12:45:43;;;;;;;22.58;6.25;;;;;;;17.34;56.29;101919.13;5090074;28;20458;-78
2022/06/02 12:48:41;;;;;;;14.63;5.85;;;;;;;17.42;55.45;101913.88;5088550;28;20110;-78
2022/06/02 12:51:34;;;;;;;13.18;5.45;;;;;;;17.49;53.69;101900.63;5069890;28;20468;-79
2022/06/02 12:54:47;;;;;;;19.13;7.88;;;;;;;17.57;55.97;101909.84;5061451;28;20075;-79